Terminal Aerodrome Forecast
Issued by NWS

Home | Current Version | Previous Version | Text Only | Print | Product List | Glossary On
Versions: 1 2 3 4 5 6 7 8 9 10 11 12 13 14 15 16 17
000
FTUS42 KTBW 010500 RRA
TAFRSW
TAF
KRSW 010541Z 0106/0206 06007KT P6SM VCSH BKN012 OVC050
     FM010900 07005KT 5SM BR BKN015 BKN060
     FM011400 12009KT P6SM SCT025 SCT060
     FM011900 14009KT P6SM VCSH SCT035 SCT080
     FM020000 09005KT P6SM SCT045=

USA.gov is the U.S. government's official web portal to all federal, state and local government web resources and services.